createdAt,value
2018-02-08T04:00:40.620Z,41.64
2018-02-08T04:01:40.202Z,43.75
2018-02-08T04:04:23.540Z,44.46
2018-02-08T04:05:23.526Z,44.42
2018-02-08T04:08:07.912Z,46.07
2018-02-08T04:09:08.208Z,46.74
2018-02-08T04:11:52.596Z,50.42
2018-02-08T04:12:52.523Z,52.70
2018-02-08T04:15:36.617Z,64.36
2018-02-08T04:16:36.937Z,67.09
2018-02-08T04:19:20.945Z,61.65
2018-02-08T04:20:20.876Z,59.70
2018-02-08T04:21:20.850Z,48.81
2018-02-08T04:22:20.847Z,46.62
2018-02-08T04:23:20.816Z,44.32
2018-02-08T04:24:20.824Z,43.82
2018-02-08T04:25:20.829Z,44.32
2018-02-08T04:26:21.237Z,44.74
2018-02-08T04:27:21.323Z,44.30
2018-02-08T04:28:21.109Z,43.96
2018-02-08T04:29:21.088Z,43.02
2018-02-08T04:30:21.152Z,44.50
2018-02-08T04:31:21.146Z,42.62
2018-02-08T04:32:21.093Z,43.25
2018-02-08T04:33:21.123Z,42.16
2018-02-08T04:34:20.695Z,43.02
2018-02-08T04:35:21.039Z,42.40
2018-02-08T04:36:20.962Z,42.38
2018-02-08T04:37:20.937Z,42.29
2018-02-08T04:38:20.943Z,44.59
2018-02-08T04:39:21.013Z,43.90
2018-02-08T04:40:20.910Z,44.71
2018-02-08T04:41:20.992Z,45.10
2018-02-08T04:42:20.982Z,44.51
2018-02-08T04:43:20.586Z,43.48
2018-02-08T04:44:21.024Z,43.77
2018-02-08T04:45:20.867Z,44.35
2018-02-08T04:46:20.866Z,45.03
2018-02-08T04:47:20.903Z,45.24
2018-02-08T04:48:20.883Z,44.80
2018-02-08T04:49:20.840Z,44.25
2018-02-08T04:50:20.946Z,43.32
2018-02-08T04:51:20.885Z,43.91
2018-02-08T04:52:20.880Z,44.06
2018-02-08T04:53:20.777Z,44.10
2018-02-08T04:54:20.784Z,44.25
2018-02-08T04:55:20.819Z,45.09
2018-02-08T04:56:20.807Z,44.77
2018-02-08T04:57:20.901Z,45.88
2018-02-08T04:58:20.773Z,45.81
2018-02-08T04:59:20.766Z,44.58
2018-02-08T05:00:20.672Z,44.60
2018-02-08T05:01:20.680Z,45.81
2018-02-08T05:02:21.228Z,44.07
2018-02-08T05:03:20.772Z,44.44
2018-02-08T05:04:20.762Z,46.28
2018-02-08T05:05:20.267Z,44.96
2018-02-08T05:06:20.250Z,43.42
2018-02-08T05:07:20.238Z,42.84
2018-02-08T05:08:20.233Z,43.52
2018-02-08T05:09:20.226Z,44.42
2018-02-08T05:10:20.207Z,44.69
2018-02-08T05:11:20.180Z,43.89
2018-02-08T05:12:20.179Z,44.41
2018-02-08T05:13:20.184Z,44.16
2018-02-08T05:14:20.173Z,44.91
2018-02-08T05:15:20.148Z,44.59
2018-02-08T05:16:20.120Z,44.07
2018-02-08T05:17:20.113Z,43.67
2018-02-08T05:18:20.111Z,42.40
2018-02-08T05:19:20.099Z,43.46
2018-02-08T05:20:20.071Z,42.32
2018-02-08T05:21:20.054Z,40.67
2018-02-08T05:22:20.039Z,42.19
2018-02-08T05:23:20.045Z,42.86
2018-02-08T05:24:20.013Z,44.04
2018-02-08T05:25:20.919Z,43.43
2018-02-08T05:26:19.995Z,43.59
2018-02-08T05:27:21.541Z,43.92
2018-02-08T05:28:19.979Z,44.74
2018-02-08T05:29:19.964Z,42.70
2018-02-08T05:30:19.938Z,43.42
2018-02-08T05:31:19.929Z,43.29
2018-02-08T05:32:19.906Z,42.54
2018-02-08T05:33:19.898Z,43.81
2018-02-08T05:34:19.890Z,42.67
2018-02-08T05:35:19.876Z,42.64
2018-02-08T05:36:19.860Z,42.48
2018-02-08T05:37:19.842Z,43.02
2018-02-08T05:38:19.851Z,43.23
2018-02-08T05:39:19.819Z,43.97
2018-02-08T05:40:19.830Z,43.16
2018-02-08T05:41:19.799Z,43.08
2018-02-08T05:41:31.789Z,1.74
2018-02-08T05:43:19.786Z,42.09
2018-02-08T05:44:19.755Z,43.17
2018-02-08T05:45:19.745Z,42.62
2018-02-08T05:46:19.727Z,42.57
2018-02-08T05:47:19.715Z,42.23
2018-02-08T05:48:19.733Z,44.05
2018-02-08T05:49:19.706Z,45.12
2018-02-08T05:50:20.089Z,43.86
2018-02-08T05:51:19.663Z,43.14
2018-02-08T05:52:19.673Z,43.57
2018-02-08T05:53:19.646Z,43.79
2018-02-08T05:54:19.649Z,43.10
2018-02-08T05:55:19.650Z,43.11
2018-02-08T05:56:19.617Z,44.25
2018-02-08T05:57:19.694Z,44.16
2018-02-08T05:58:19.620Z,45.16
2018-02-08T05:59:19.643Z,44.26
2018-02-08T06:00:19.541Z,43.18
2018-02-08T06:01:19.529Z,43.80
2018-02-08T06:02:19.513Z,45.80
2018-02-08T06:03:19.520Z,46.41
2018-02-08T06:04:19.506Z,46.08
2018-02-08T06:05:19.470Z,44.74
2018-02-08T06:06:19.472Z,45.18
2018-02-08T06:07:19.453Z,43.42
2018-02-08T06:08:19.435Z,46.81
2018-02-08T06:09:19.444Z,45.07
2018-02-08T06:10:19.417Z,45.70
2018-02-08T06:11:19.406Z,47.36
2018-02-08T06:12:19.401Z,45.37
2018-02-08T06:13:19.394Z,45.77
2018-02-08T06:14:19.374Z,46.15
2018-02-08T06:15:19.349Z,45.26
2018-02-08T06:16:19.337Z,44.83
2018-02-08T06:17:19.348Z,44.77
2018-02-08T06:18:19.310Z,45.14
2018-02-08T06:19:19.288Z,44.66
2018-02-08T06:20:19.298Z,46.12
2018-02-08T06:21:19.264Z,46.21
2018-02-08T06:22:19.254Z,45.84
2018-02-08T06:23:19.247Z,46.39
2018-02-08T06:24:19.286Z,47.23
2018-02-08T06:25:19.228Z,46.83
2018-02-08T06:26:19.535Z,46.61
2018-02-08T06:27:19.800Z,46.51
2018-02-08T06:28:20.651Z,45.29
2018-02-08T06:29:19.183Z,45.58
2018-02-08T06:30:19.154Z,45.87
2018-02-08T06:31:19.142Z,46.45
2018-02-08T06:32:19.123Z,48.30
2018-02-08T06:33:19.114Z,47.10
2018-02-08T06:34:20.649Z,46.46
2018-02-08T06:35:19.088Z,46.25
2018-02-08T06:36:19.085Z,46.52
2018-02-08T06:37:20.341Z,46.06
2018-02-08T06:38:19.048Z,48.26
2018-02-08T06:39:19.036Z,46.93
2018-02-08T06:40:19.027Z,47.55
2018-02-08T06:41:19.065Z,46.66
2018-02-08T06:42:19.000Z,46.63
2018-02-08T06:43:18.980Z,45.95
2018-02-08T06:44:18.959Z,49.46
2018-02-08T06:45:18.953Z,49.06
2018-02-08T06:46:18.933Z,46.85
2018-02-08T06:47:18.927Z,49.56
2018-02-08T06:48:18.920Z,47.48
2018-02-08T06:49:18.915Z,47.43
2018-02-08T06:50:18.889Z,47.71
2018-02-08T06:51:20.451Z,48.43
2018-02-08T06:52:18.857Z,47.60
2018-02-08T06:53:18.855Z,46.84
2018-02-08T06:54:18.856Z,48.52
2018-02-08T06:55:18.833Z,47.19
2018-02-08T06:56:18.855Z,46.28
2018-02-08T06:57:18.802Z,48.04
2018-02-08T06:58:18.781Z,48.71
2018-02-08T06:59:18.775Z,49.18
2018-02-08T07:00:18.756Z,48.05
2018-02-08T07:01:18.739Z,48.62
2018-02-08T07:02:18.724Z,48.18
2018-02-08T07:03:18.734Z,48.34
2018-02-08T07:04:18.709Z,49.06
2018-02-08T07:05:18.714Z,49.26
2018-02-08T07:06:18.680Z,47.84
2018-02-08T07:07:18.683Z,49.04
2018-02-08T07:08:18.691Z,48.40
2018-02-08T07:09:20.458Z,46.96
2018-02-08T07:10:18.644Z,48.63
2018-02-08T07:11:18.646Z,47.54
2018-02-08T07:12:18.609Z,46.59
2018-02-08T07:13:22.359Z,47.16
2018-02-08T07:14:19.198Z,47.62
2018-02-08T07:15:18.561Z,47.27
2018-02-08T07:16:18.961Z,46.56
2018-02-08T07:17:19.105Z,48.10
2018-02-08T07:18:19.325Z,47.04
2018-02-08T07:19:19.307Z,46.78
2018-02-08T07:20:19.895Z,46.42
2018-02-08T07:21:18.940Z,45.46
2018-02-08T07:22:18.744Z,44.26
2018-02-08T07:23:19.026Z,44.47
2018-02-08T07:24:18.930Z,44.44
2018-02-08T07:25:18.447Z,45.36
2018-02-08T07:26:18.421Z,47.42
2018-02-08T07:27:18.443Z,45.60
2018-02-08T07:28:18.399Z,45.60
2018-02-08T07:29:18.412Z,45.91
2018-02-08T07:30:18.385Z,47.12
2018-02-08T07:31:18.355Z,47.35
2018-02-08T07:32:18.360Z,47.30
2018-02-08T07:33:18.339Z,47.70
2018-02-08T07:34:18.324Z,47.57
2018-02-08T07:35:18.325Z,47.22
2018-02-08T07:36:18.311Z,45.42
2018-02-08T07:37:18.291Z,45.17
2018-02-08T07:38:18.266Z,45.99
2018-02-08T07:39:18.261Z,45.74
2018-02-08T07:40:18.244Z,45.28
2018-02-08T07:41:18.228Z,43.92
2018-02-08T07:42:18.234Z,43.33
2018-02-08T07:43:18.206Z,43.92
2018-02-08T07:44:18.205Z,44.36
2018-02-08T07:45:18.186Z,43.15
2018-02-08T07:46:18.179Z,44.78
2018-02-08T07:47:18.158Z,45.12
2018-02-08T07:48:18.141Z,42.91
2018-02-08T07:49:18.153Z,43.27
2018-02-08T07:50:18.126Z,42.93
2018-02-08T07:51:18.109Z,43.31
2018-02-08T07:52:18.091Z,42.05
2018-02-08T07:53:18.103Z,39.63
2018-02-08T07:54:18.073Z,40.56
2018-02-08T07:55:18.051Z,41.65
2018-02-08T07:56:18.030Z,42.02
2018-02-08T07:57:18.048Z,42.87
2018-02-08T07:58:18.005Z,42.52
2018-02-08T07:59:18.005Z,42.59
2018-02-08T08:00:17.989Z,42.36
2018-02-08T08:01:18.003Z,42.34
2018-02-08T08:02:17.961Z,43.19
2018-02-08T08:03:17.968Z,43.55
2018-02-08T08:04:17.938Z,43.73
2018-02-08T08:05:17.925Z,42.94
2018-02-08T08:06:17.920Z,43.54
2018-02-08T08:07:17.912Z,44.33
2018-02-08T08:08:17.897Z,41.95
2018-02-08T08:09:17.874Z,41.42
2018-02-08T08:10:17.879Z,40.01
2018-02-08T08:11:17.853Z,40.32
2018-02-08T08:12:17.829Z,40.96
2018-02-08T08:13:17.841Z,39.89
2018-02-08T08:14:17.912Z,39.91
2018-02-08T08:15:17.802Z,41.43
2018-02-08T08:16:17.782Z,41.84
2018-02-08T08:17:17.777Z,41.43
2018-02-08T08:18:17.780Z,39.72
2018-02-08T08:19:17.744Z,41.09
2018-02-08T08:20:17.751Z,40.07
2018-02-08T08:21:17.720Z,39.16
2018-02-08T08:22:17.727Z,39.01
2018-02-08T08:23:17.694Z,39.89
2018-02-08T08:24:17.696Z,39.10
2018-02-08T08:25:17.671Z,39.23
2018-02-08T08:26:17.674Z,39.33
2018-02-08T08:27:17.654Z,38.93
2018-02-08T08:28:17.643Z,40.36
2018-02-08T08:29:17.623Z,39.24
2018-02-08T08:30:17.675Z,39.94
2018-02-08T08:31:17.615Z,47.26
2018-02-08T08:32:17.596Z,54.09
2018-02-08T08:33:17.585Z,57.30
2018-02-08T08:34:17.566Z,53.32
2018-02-08T08:35:17.550Z,47.20
2018-02-08T08:36:17.539Z,45.34
2018-02-08T08:37:17.520Z,44.89
2018-02-08T08:38:17.515Z,41.15
2018-02-08T08:39:17.508Z,41.08
2018-02-08T08:40:17.478Z,41.08
2018-02-08T08:41:17.470Z,41.32
2018-02-08T08:42:17.468Z,40.69
2018-02-08T08:43:17.453Z,39.77
2018-02-08T08:44:17.432Z,38.65
2018-02-08T08:45:17.428Z,38.02
2018-02-08T08:46:17.414Z,37.91
2018-02-08T08:47:17.401Z,38.92
2018-02-08T08:48:17.406Z,39.84
2018-02-08T08:49:17.381Z,39.49
2018-02-08T08:50:17.392Z,39.40
2018-02-08T08:51:17.357Z,38.84
2018-02-08T08:52:17.340Z,39.51
2018-02-08T08:53:17.355Z,39.92
2018-02-08T08:54:17.322Z,39.81
2018-02-08T08:55:17.317Z,39.74
2018-02-08T08:56:17.301Z,39.22
2018-02-08T08:57:17.310Z,38.62
2018-02-08T08:58:17.277Z,37.61
2018-02-08T08:59:17.268Z,38.60
2018-02-08T09:00:17.269Z,39.49
2018-02-08T09:01:17.255Z,37.11
2018-02-08T09:02:17.218Z,36.75
2018-02-08T09:03:17.225Z,37.29
2018-02-08T09:04:17.213Z,38.33
2018-02-08T09:05:17.189Z,38.72
2018-02-08T09:06:17.166Z,37.76
2018-02-08T09:07:17.157Z,38.70
2018-02-08T09:08:17.166Z,38.27
2018-02-08T09:09:17.155Z,38.02
2018-02-08T09:10:17.126Z,36.75
2018-02-08T09:11:17.132Z,37.89
2018-02-08T09:12:17.178Z,37.79
2018-02-08T09:13:17.088Z,37.12
2018-02-08T09:14:17.091Z,39.23
2018-02-08T09:15:17.075Z,38.86
2018-02-08T09:16:17.051Z,37.98
2018-02-08T09:17:17.046Z,38.34
2018-02-08T09:18:17.061Z,38.91
2018-02-08T09:19:17.064Z,38.17
2018-02-08T09:20:17.007Z,37.70
2018-02-08T09:21:16.994Z,38.10
2018-02-08T09:22:16.994Z,38.34
2018-02-08T09:23:16.991Z,39.00
2018-02-08T09:24:16.959Z,39.40
2018-02-08T09:25:16.977Z,38.18
2018-02-08T09:26:16.929Z,38.42
2018-02-08T09:27:16.926Z,38.71
2018-02-08T09:28:16.919Z,37.32
2018-02-08T09:29:16.906Z,37.84
2018-02-08T09:30:16.883Z,38.68
2018-02-08T09:31:16.917Z,38.36
2018-02-08T09:32:16.865Z,39.75
2018-02-08T09:33:16.863Z,40.61
2018-02-08T09:34:16.857Z,39.48
2018-02-08T09:35:16.845Z,39.44
2018-02-08T09:36:16.812Z,38.12
2018-02-08T09:37:16.801Z,36.56
2018-02-08T09:38:16.813Z,38.38
2018-02-08T09:39:16.785Z,38.66
2018-02-08T09:40:16.771Z,38.50
2018-02-08T09:41:16.769Z,37.74
2018-02-08T09:42:16.747Z,37.28
2018-02-08T09:43:16.734Z,37.54
2018-02-08T09:44:16.759Z,37.94
2018-02-08T09:45:16.732Z,37.87
2018-02-08T09:46:16.703Z,38.37
2018-02-08T09:47:16.698Z,38.80
2018-02-08T09:48:16.675Z,38.44
2018-02-08T09:49:16.664Z,37.64
2018-02-08T09:50:16.678Z,37.95
2018-02-08T09:51:16.661Z,39.30
2018-02-08T09:52:16.639Z,36.52
2018-02-08T09:53:16.636Z,38.17
2018-02-08T09:54:16.661Z,39.68
2018-02-08T09:55:16.624Z,39.38
2018-02-08T09:56:16.602Z,38.90
2018-02-08T09:57:16.606Z,38.54
2018-02-08T09:58:16.571Z,37.79
2018-02-08T09:59:16.564Z,37.75
2018-02-08T10:00:16.542Z,39.28
2018-02-08T10:01:16.547Z,37.42
2018-02-08T10:02:16.541Z,38.62
2018-02-08T10:03:16.520Z,39.03
2018-02-08T10:04:16.493Z,37.50
2018-02-08T10:05:16.504Z,37.26
2018-02-08T10:06:16.481Z,38.96
2018-02-08T10:07:16.481Z,40.16
2018-02-08T10:08:16.475Z,38.95
2018-02-08T10:09:16.448Z,39.50
2018-02-08T10:10:16.470Z,37.91
2018-02-08T10:11:16.425Z,38.50
2018-02-08T10:12:16.448Z,38.54
2018-02-08T10:13:16.423Z,39.46
2018-02-08T10:14:16.410Z,40.08
2018-02-08T10:15:16.403Z,39.39
2018-02-08T10:16:16.374Z,39.61
2018-02-08T10:17:16.417Z,39.36
2018-02-08T10:18:16.366Z,40.82
2018-02-08T10:19:16.367Z,40.82
2018-02-08T10:20:16.334Z,41.04
2018-02-08T10:21:16.323Z,41.06
2018-02-08T10:22:16.324Z,40.76
2018-02-08T10:23:16.310Z,40.04
2018-02-08T10:24:16.281Z,39.90
2018-02-08T10:25:16.290Z,40.12
2018-02-08T10:26:16.262Z,40.78
2018-02-08T10:27:16.256Z,41.12
2018-02-08T10:28:16.245Z,40.88
2018-02-08T10:29:16.241Z,41.01
2018-02-08T10:30:16.217Z,41.07
2018-02-08T10:31:16.207Z,41.42
2018-02-08T10:32:16.198Z,41.24
2018-02-08T10:33:16.201Z,41.22
2018-02-08T10:34:16.196Z,40.92
2018-02-08T10:35:16.172Z,41.16
2018-02-08T10:36:16.145Z,41.21
2018-02-08T10:37:16.164Z,41.13
2018-02-08T10:38:16.153Z,41.48
2018-02-08T10:39:16.124Z,41.69
2018-02-08T10:40:16.125Z,40.96
2018-02-08T10:41:16.121Z,41.97
2018-02-08T10:42:16.101Z,41.69
2018-02-08T10:43:16.093Z,41.80
2018-02-08T10:44:16.062Z,40.60
2018-02-08T10:45:16.063Z,40.62
2018-02-08T10:46:16.054Z,40.86
2018-02-08T10:47:16.036Z,42.20
2018-02-08T10:48:16.023Z,40.61
2018-02-08T10:49:16.005Z,42.52
2018-02-08T10:50:16.005Z,43.03
2018-02-08T10:51:15.990Z,41.98
2018-02-08T10:52:16.033Z,43.71
2018-02-08T10:53:15.964Z,42.39
2018-02-08T10:54:15.950Z,42.34
2018-02-08T10:55:15.951Z,42.46
2018-02-08T10:56:15.931Z,42.36
2018-02-08T10:57:15.942Z,44.83
2018-02-08T10:58:15.947Z,46.12
2018-02-08T10:59:15.907Z,43.90
2018-02-08T11:00:15.891Z,52.11
2018-02-08T11:01:15.912Z,52.94
2018-02-08T11:02:15.920Z,49.06
2018-02-08T11:03:15.878Z,46.39
2018-02-08T11:04:15.876Z,46.81
2018-02-08T11:05:15.858Z,45.92
2018-02-08T11:06:15.835Z,46.49
2018-02-08T11:07:15.809Z,44.98
2018-02-08T11:08:15.799Z,44.99
2018-02-08T11:09:15.818Z,44.69
2018-02-08T11:10:15.777Z,45.82
2018-02-08T11:11:15.772Z,45.42
2018-02-08T11:12:15.760Z,45.57
2018-02-08T11:13:15.755Z,49.47
2018-02-08T11:14:15.725Z,47.35
2018-02-08T11:15:15.723Z,45.88
2018-02-08T11:16:15.708Z,46.43
2018-02-08T11:17:15.704Z,48.12
2018-02-08T11:18:15.692Z,46.06
2018-02-08T11:19:15.697Z,47.78
2018-02-08T11:20:15.669Z,47.16
2018-02-08T11:21:15.668Z,47.63
2018-02-08T11:22:15.648Z,49.10
2018-02-08T11:23:15.651Z,49.72
2018-02-08T11:24:15.626Z,49.51
2018-02-08T11:25:15.632Z,53.24
2018-02-08T11:26:15.618Z,54.82
2018-02-08T11:27:15.601Z,50.10
2018-02-08T11:28:15.597Z,49.63
2018-02-08T11:29:15.570Z,48.35
2018-02-08T11:30:15.557Z,48.37
2018-02-08T11:31:15.541Z,47.98
2018-02-08T11:32:15.548Z,48.02
2018-02-08T11:33:15.516Z,47.06
2018-02-08T11:34:15.520Z,48.10
2018-02-08T11:35:15.505Z,47.35
2018-02-08T11:36:15.493Z,48.45
2018-02-08T11:37:15.483Z,48.32
2018-02-08T11:38:15.485Z,49.64
2018-02-08T11:39:15.486Z,50.26
2018-02-08T11:40:15.452Z,49.87
2018-02-08T11:41:15.453Z,51.96
2018-02-08T11:42:15.428Z,49.98
2018-02-08T11:43:15.417Z,49.68
2018-02-08T11:44:15.399Z,48.76
2018-02-08T11:45:15.389Z,52.25
2018-02-08T11:46:15.383Z,52.70
2018-02-08T11:47:15.371Z,50.35
2018-02-08T11:48:15.366Z,50.23
2018-02-08T11:49:15.376Z,49.91
2018-02-08T11:50:15.361Z,50.43
2018-02-08T11:51:15.341Z,49.14
2018-02-08T11:52:15.343Z,49.84
2018-02-08T11:53:15.308Z,53.86
2018-02-08T11:54:15.302Z,65.62
2018-02-08T11:55:15.281Z,77.75
2018-02-08T11:56:15.281Z,76.23
2018-02-08T11:57:15.263Z,52.58
2018-02-08T11:58:15.285Z,50.01
2018-02-08T11:59:15.233Z,51.23
2018-02-08T12:00:15.222Z,49.54
2018-02-08T12:01:15.229Z,49.64
2018-02-08T12:02:15.235Z,49.86
2018-02-08T12:03:15.213Z,49.38
2018-02-08T12:04:15.188Z,49.95
2018-02-08T12:05:15.192Z,49.95
2018-02-08T12:06:15.164Z,49.26
2018-02-08T12:07:15.151Z,50.40
2018-02-08T12:08:15.157Z,49.54
2018-02-08T12:09:15.148Z,49.98
2018-02-08T12:10:15.127Z,50.38
2018-02-08T12:11:15.144Z,51.43
2018-02-08T12:12:15.120Z,50.80
2018-02-08T12:13:15.082Z,49.90
2018-02-08T12:14:15.084Z,51.55
2018-02-08T12:15:15.071Z,52.32
2018-02-08T12:16:15.070Z,51.52
2018-02-08T12:17:15.038Z,51.75
2018-02-08T12:18:15.033Z,51.68
2018-02-08T12:19:15.027Z,51.38
2018-02-08T12:20:15.011Z,50.74
2018-02-08T12:21:15.013Z,51.56
2018-02-08T12:22:14.984Z,51.14
2018-02-08T12:23:14.978Z,54.49
2018-02-08T12:24:14.993Z,53.31
2018-02-08T12:25:14.950Z,52.69
2018-02-08T12:26:14.962Z,54.07
2018-02-08T12:27:14.939Z,54.55
2018-02-08T12:28:14.943Z,53.13
2018-02-08T12:29:14.929Z,52.23
2018-02-08T12:30:14.905Z,52.45
2018-02-08T12:31:14.966Z,52.38
2018-02-08T12:32:14.894Z,52.58
2018-02-08T12:33:14.886Z,52.22
2018-02-08T12:34:14.863Z,51.36
2018-02-08T12:35:14.848Z,52.58
2018-02-08T12:36:14.843Z,52.26
2018-02-08T12:37:14.851Z,50.73
2018-02-08T12:38:14.816Z,48.65
2018-02-08T12:39:14.804Z,49.80
2018-02-08T12:40:15.388Z,50.43
2018-02-08T12:41:14.799Z,51.18
2018-02-08T12:42:15.181Z,51.95
2018-02-08T12:43:14.755Z,50.50
2018-02-08T12:44:14.763Z,51.38
2018-02-08T12:45:14.739Z,51.54
2018-02-08T12:46:14.729Z,50.30
2018-02-08T12:47:14.733Z,51.06
2018-02-08T12:48:14.723Z,52.08
2018-02-08T12:49:17.571Z,51.49
2018-02-08T12:50:15.316Z,52.05
2018-02-08T12:51:15.873Z,50.44
2018-02-08T12:52:14.682Z,51.04
2018-02-08T12:53:14.655Z,52.60
2018-02-08T12:54:14.641Z,50.90
2018-02-08T12:55:14.645Z,51.47
2018-02-08T12:56:14.656Z,51.98
2018-02-08T12:57:14.625Z,51.89
2018-02-08T12:58:14.605Z,51.59
2018-02-08T12:59:14.641Z,52.32
2018-02-08T13:00:14.619Z,51.48
2018-02-08T13:01:14.678Z,49.84
2018-02-08T13:02:14.625Z,49.82
2018-02-08T13:03:14.545Z,50.68
2018-02-08T13:04:14.533Z,50.16
2018-02-08T13:05:14.919Z,51.45
2018-02-08T13:06:14.593Z,51.05
2018-02-08T13:07:14.510Z,52.33
2018-02-08T13:08:14.495Z,48.70
2018-02-08T13:09:14.512Z,49.10
2018-02-08T13:10:14.465Z,48.39
2018-02-08T13:11:14.477Z,49.12
2018-02-08T13:12:14.452Z,50.20
2018-02-08T13:13:14.430Z,48.80
2018-02-08T13:14:14.416Z,47.92
2018-02-08T13:15:14.425Z,50.30
2018-02-08T13:16:14.402Z,49.56
2018-02-08T13:17:14.400Z,48.80
2018-02-08T13:18:14.393Z,49.69
2018-02-08T13:19:14.375Z,49.14
2018-02-08T13:20:14.419Z,50.12
2018-02-08T13:21:14.472Z,48.88
2018-02-08T13:22:14.356Z,48.67
2018-02-08T13:23:14.327Z,49.03
2018-02-08T13:24:14.321Z,48.56
2018-02-08T13:25:14.313Z,49.14
2018-02-08T13:26:14.310Z,49.52
2018-02-08T13:27:14.300Z,49.70
2018-02-08T13:28:14.271Z,50.53
2018-02-08T13:29:14.254Z,50.15
2018-02-08T13:30:14.254Z,50.37
2018-02-08T13:31:14.247Z,50.14
2018-02-08T13:32:14.313Z,48.30
2018-02-08T13:33:14.339Z,48.89
2018-02-08T13:34:14.207Z,49.98
2018-02-08T13:35:14.218Z,48.29
2018-02-08T13:36:14.181Z,48.67
2018-02-08T13:37:14.192Z,48.54
2018-02-08T13:38:14.168Z,48.81
2018-02-08T13:39:14.164Z,49.82
2018-02-08T13:40:14.151Z,49.06
2018-02-08T13:41:14.153Z,50.62
2018-02-08T13:42:14.134Z,49.23
2018-02-08T13:43:14.118Z,48.64
2018-02-08T13:44:14.096Z,47.76
2018-02-08T13:45:14.121Z,49.92
2018-02-08T13:46:14.070Z,49.46
2018-02-08T13:47:14.068Z,50.95
2018-02-08T13:48:14.069Z,50.71
2018-02-08T13:49:14.051Z,51.33
2018-02-08T13:50:14.066Z,50.94
2018-02-08T13:51:14.230Z,50.74
2018-02-08T13:52:14.015Z,50.90
2018-02-08T13:53:13.996Z,52.02
2018-02-08T13:54:14.002Z,50.24
2018-02-08T13:55:13.998Z,49.53
2018-02-08T13:56:13.969Z,48.88
2018-02-08T13:57:13.976Z,49.88
2018-02-08T13:58:13.953Z,48.48
2018-02-08T13:59:13.944Z,47.42
2018-02-08T14:00:13.944Z,47.52
2018-02-08T14:01:13.928Z,48.83
2018-02-08T14:02:13.931Z,48.76
2018-02-08T14:03:13.922Z,49.48
2018-02-08T14:04:13.876Z,48.56
2018-02-08T14:05:13.877Z,49.25
2018-02-08T14:06:13.865Z,50.48
2018-02-08T14:07:13.852Z,49.06
2018-02-08T14:08:13.855Z,49.62
2018-02-08T14:09:13.825Z,49.19
2018-02-08T14:10:13.836Z,50.61
2018-02-08T14:11:13.818Z,48.93
2018-02-08T14:12:13.808Z,50.26
2018-02-08T14:13:13.818Z,48.35
2018-02-08T14:14:13.792Z,46.74
2018-02-08T14:15:13.833Z,46.49
2018-02-08T14:16:13.763Z,46.84
2018-02-08T14:17:13.741Z,47.42
2018-02-08T14:18:13.745Z,47.55
2018-02-08T14:19:13.717Z,46.46
2018-02-08T14:20:13.706Z,46.47
2018-02-08T14:21:13.715Z,46.37
2018-02-08T14:22:13.745Z,46.78
2018-02-08T14:23:13.725Z,47.42
2018-02-08T14:24:13.659Z,47.76
2018-02-08T14:25:13.664Z,48.19
2018-02-08T14:26:13.655Z,47.28
2018-02-08T14:27:13.691Z,48.36
2018-02-08T14:28:13.649Z,48.18
2018-02-08T14:29:13.607Z,51.21
2018-02-08T14:30:13.601Z,50.36
2018-02-08T14:31:13.588Z,50.54
2018-02-08T14:32:13.599Z,51.54
2018-02-08T14:33:13.566Z,52.31
2018-02-08T14:34:13.562Z,51.28
2018-02-08T14:35:13.560Z,50.58
2018-02-08T14:36:13.538Z,50.92
2018-02-08T14:37:13.531Z,51.38
2018-02-08T14:38:13.528Z,50.80
2018-02-08T14:39:13.516Z,50.87
2018-02-08T14:40:13.559Z,51.27
2018-02-08T14:41:13.509Z,49.69
2018-02-08T14:42:13.465Z,47.95
2018-02-08T14:43:13.657Z,48.40
2018-02-08T14:44:13.440Z,48.91
2018-02-08T14:45:13.459Z,48.53
2018-02-08T14:46:13.435Z,48.10
2018-02-08T14:47:13.820Z,48.22
2018-02-08T14:48:13.447Z,48.28
2018-02-08T14:49:13.398Z,49.06
2018-02-08T14:50:13.379Z,49.61
2018-02-08T14:51:13.387Z,50.17
2018-02-08T14:52:13.371Z,50.95
2018-02-08T14:53:13.362Z,50.79
2018-02-08T14:54:13.340Z,51.98
2018-02-08T14:55:13.331Z,52.29
2018-02-08T14:56:13.315Z,50.93
2018-02-08T14:57:13.310Z,49.42
2018-02-08T14:58:13.290Z,49.43
2018-02-08T14:59:13.293Z,49.50
2018-02-08T15:00:13.281Z,48.96
2018-02-08T15:01:13.271Z,50.03
2018-02-08T15:02:13.251Z,50.86
2018-02-08T15:03:13.240Z,50.38
2018-02-08T15:04:13.247Z,49.09
2018-02-08T15:05:13.214Z,52.30
2018-02-08T15:06:13.226Z,49.65
2018-02-08T15:07:13.216Z,49.75
2018-02-08T15:08:13.183Z,50.37
2018-02-08T15:08:25.195Z,1.99
2018-02-08T15:10:13.188Z,48.28
2018-02-08T15:11:13.182Z,47.24
2018-02-08T15:12:13.137Z,45.40
2018-02-08T15:13:13.150Z,47.35
2018-02-08T15:14:13.120Z,47.00
2018-02-08T15:15:13.112Z,46.90
2018-02-08T15:16:13.100Z,47.36
2018-02-08T15:17:13.102Z,45.95
2018-02-08T15:18:13.086Z,46.55
2018-02-08T15:19:13.075Z,45.34
2018-02-08T15:20:13.063Z,46.88
2018-02-08T15:21:13.054Z,46.71
2018-02-08T15:22:13.037Z,46.30
2018-02-08T15:23:13.022Z,46.02
2018-02-08T15:24:13.012Z,45.80
2018-02-08T15:25:13.014Z,46.18
2018-02-08T15:26:12.994Z,46.14
2018-02-08T15:27:12.993Z,46.43
2018-02-08T15:28:12.968Z,46.84
2018-02-08T15:29:12.949Z,46.42
2018-02-08T15:30:12.950Z,46.03
2018-02-08T15:31:12.975Z,45.72
2018-02-08T15:32:12.935Z,45.60
2018-02-08T15:33:12.908Z,46.90
2018-02-08T15:34:12.918Z,45.24
2018-02-08T15:35:13.030Z,45.33
2018-02-08T15:36:12.875Z,44.68
2018-02-08T15:37:12.867Z,44.84
2018-02-08T15:38:12.864Z,45.03
2018-02-08T15:39:12.847Z,45.24
2018-02-08T15:40:12.834Z,46.18
2018-02-08T15:41:12.843Z,46.33
2018-02-08T15:42:12.823Z,45.66
2018-02-08T15:43:12.827Z,45.62
2018-02-08T15:44:12.788Z,47.08
2018-02-08T15:45:12.771Z,46.36
2018-02-08T15:46:12.771Z,47.56
2018-02-08T15:47:12.756Z,46.54
2018-02-08T15:48:12.757Z,47.02
2018-02-08T15:49:12.741Z,48.00
2018-02-08T15:50:12.715Z,48.08
2018-02-08T15:51:12.703Z,47.96
2018-02-08T15:52:12.690Z,48.15
2018-02-08T15:53:12.695Z,47.00
2018-02-08T15:54:12.679Z,48.19
2018-02-08T15:55:12.657Z,48.61
2018-02-08T15:56:13.142Z,49.06
2018-02-08T15:57:12.663Z,50.22
2018-02-08T15:58:12.934Z,47.84
2018-02-08T15:59:12.669Z,49.15
2018-02-08T16:00:12.917Z,49.76
2018-02-08T16:01:16.972Z,48.72
2018-02-08T16:02:16.791Z,48.62
2018-02-08T16:03:12.578Z,49.54
2018-02-08T16:04:15.442Z,49.98
2018-02-08T16:05:12.567Z,50.29
2018-02-08T16:06:12.553Z,50.58
2018-02-08T16:07:12.526Z,51.47
2018-02-08T16:08:12.512Z,50.17
2018-02-08T16:09:12.495Z,49.86
2018-02-08T16:10:12.506Z,49.11
2018-02-08T16:11:12.475Z,51.60
2018-02-08T16:12:12.476Z,53.49
2018-02-08T16:13:12.462Z,53.65
2018-02-08T16:14:12.444Z,52.23
2018-02-08T16:15:12.450Z,52.79
2018-02-08T16:16:12.443Z,51.84
2018-02-08T16:17:12.408Z,52.62
2018-02-08T16:18:12.402Z,52.22
2018-02-08T16:19:12.388Z,50.83
2018-02-08T16:20:12.375Z,52.26
2018-02-08T16:21:12.363Z,53.49
2018-02-08T16:22:12.356Z,53.89
2018-02-08T16:23:12.347Z,53.66
2018-02-08T16:24:12.337Z,54.15
2018-02-08T16:25:12.311Z,54.71
2018-02-08T16:26:12.315Z,54.73
2018-02-08T16:26:24.315Z,2.19
2018-02-08T16:28:12.284Z,53.13
2018-02-08T16:29:12.294Z,53.91
2018-02-08T16:30:12.276Z,53.86
2018-02-08T16:31:12.247Z,54.59
2018-02-08T16:32:27.705Z,53.80
2018-02-08T16:33:18.083Z,54.00
2018-02-08T16:34:18.084Z,53.67
2018-02-08T16:35:18.060Z,54.61
2018-02-08T16:36:18.051Z,54.85
2018-02-08T16:37:18.049Z,56.22
2018-02-08T16:38:18.022Z,55.18
2018-02-08T16:39:18.055Z,54.98
2018-02-08T16:40:18.155Z,55.26
2018-02-08T16:41:17.999Z,54.32
2018-02-08T16:42:17.997Z,55.31
2018-02-08T16:43:17.976Z,56.12
2018-02-08T16:44:17.968Z,55.01
2018-02-08T16:45:17.963Z,55.94
2018-02-08T16:46:17.946Z,55.06
2018-02-08T16:47:17.939Z,57.28
2018-02-08T16:48:17.973Z,56.42
2018-02-08T16:49:17.903Z,56.24
2018-02-08T16:50:17.911Z,56.84
2018-02-08T16:51:17.869Z,57.57
2018-02-08T16:52:17.858Z,58.11
2018-02-08T16:53:17.841Z,57.84
2018-02-08T16:54:17.845Z,58.41
2018-02-08T16:55:17.833Z,57.33
2018-02-08T16:56:17.797Z,58.03
2018-02-08T16:57:17.820Z,58.09
2018-02-08T16:58:17.774Z,57.45
2018-02-08T16:59:17.783Z,57.51
2018-02-08T17:00:17.754Z,59.13
2018-02-08T17:01:17.758Z,58.80